Du har inga inställningar för hoppväder.nu

Hoppväder.nu

Senast uppdaterat 00:31

UTC-tid

2019-06-25 kl. 22:31


Sol och måne

Solen går upp 4:02 och går ner 22:50 (beräknade cirkatider)
Nästa fullmåne blir om 20 dagar (2019-07-16)

METAR

ESMQ (Kalmar)
(11 minuter sedan)
ESMQ 252220Z AUTO 13002KT 0300 R16/P1500N R34/0650U NCD 14/14 Q1022=



ESMX (Växjö)
(11 minuter sedan)
ESMX 252220Z AUTO 15005KT 9999 FEW160/// 20/12 Q1022=



ESMK (Ronneby)
(11 minuter sedan)
ESMK 252220Z AUTO 00000KT 0200 R01/0600N R19/P2000N BCFG NCD 14/14 Q1021=



ESSV (Visby)
(11 minuter sedan)
ESSV 252220Z AUTO 15006KT 9999 NCD 17/13 Q1023=






TAF

ESMQ (Kalmar)
(301 minuter sedan)
ESMQ 251730Z 2518/2522 15006KT CAVOK=



ESMX (Växjö)
(1 minuter sedan)
ESMX 252230Z 2523/2602 15004KT CAVOK=



ESMK (Ronneby)
ESMK



ESSV (Visby)
(301 minuter sedan)
ESSV 251730Z 2518/2522 VRB03KT CAVOK=





Kodnycklar till TAF och METAR






LHP

(Borglanda är område K1a i Sydöstra delen)

Prognos är inte uppdaterad




Spotting

Hur fungerar spotthjälpen och Vindkartan?

Markvind är ca 0 m/s.



Vindkartan

Senast uppdaterad 00:31




All data kommer från LFV.se